Columbus, ND

11:04 PM CDT on July 25, 2014 (GMT -0500)
Tioga Municipal Airport (KD60) Elev 2270 ft | 48.38 °N, 102.90 °W | Change Station

Current weather conditions updated 9 minutes ago

Clear
Clear
57 °F
Feels Like 57 °F
N
5
Wind Variable Wind from South

Tomorrow is forecast to be Much Cooler than today.

Today
High -- | Low -- °F
--% Chance of Precip.
Yesterday
High -- | Low -- °F
Precip. -- in
6:15 AM 9:39 PM
Waning Crescent, 1% visible
Pressure 29.81 in
Visibility 10.0 miles
Clouds Clear
Dew Point 57 °F
Humidity 100%
Rainfall 0.33 in
Snow Depth Not available.
UV 0 out of 12
Pollen 7.20 out of 12
Air Quality Not available.
Flu Activity Not available.
METAR KD60 260355Z AUTO 18004KT 10SM CLR 14/14 A2981 RMK AO2

More Conditions Fewer Conditions

Pressure 29.81 in
Visibility 10.0 miles
Clouds Clear
Dew Point 57 °F
Humidity 100%
Rainfall 0.33 in
Snow Depth Not available.
UV 0 out of 12
Pollen 7.20 out of 12
Air Quality Not available.
Flu Activity Not available.
METAR KD60 260355Z AUTO 18004KT 10SM CLR 14/14 A2981 RMK AO2

More Conditions Fewer Conditions

10-Day Weather Forecast

Almanac

Astronomy

Jul. 25, 2014 Rise Set
Actual Time 6:15 AM CDT 9:39 PM CDT
Civil Twilight 5:36 AM CDT 10:17 PM CDT
Nautical Twilight 4:45 AM CDT 11:08 PM CDT
Astronomical Twilight 3:37 AM CDT 12:15 AM CDT
Moon 5:20 AM CDT (7/25) 8:32 PM CDT (7/25)
Length of Visible Light 16h 40m
Length of Day
15h 23m
Tomorrow will be 2m 32s shorter.
Waning Crescent, 1% of the Moon is Illuminated
Jul 26
Waning Crescent
Jul 26
New
Aug 3
First Quarter
Aug 10
Full
Aug 17
Last Quarter

Today's Extremes

State Highs State Lows

Community

WunderPhotos

Upload Photos

1,737,504 photos uploaded!

Nearby

Snow Depth

Station Depth Elevation
No new snow has been reported.

Earthquake Activity

City Distance Mag. Time & Date
No recent earthquake activity has been reported nearby.
Minimum magnitude displayed is 2.5.

Coastal Water Temperatures

Place Temperature
No Stations Reporting

Nearby Weather Stations

Station Location Temp. Dew Point Humidity Wind Precip. Elev Updated Type
MesoWest SOURIS RIVER BELOW RAFFERTY RES, Estevan 65 °F - - North  at  - 0.00 in / hr 1753 ft 9:00 PM CST MADIS
RAWS LOSTWOOD ND, Powers Lake, ND 62 °F 55 °F 77% South  at  6 mph 0.00 in / hr 2270 ft 9:57 PM CDT MADIS

Show More Stations Show Fewer Stations